sensor_id;sensor_type;location;lat;lon;timestamp;pressure;altitude;pressure_sealevel;temperature
64947;BMP280;51469;52.150;4.682;2023-06-14T00:02:10;101803.16;;;26.47
64947;BMP280;51469;52.150;4.682;2023-06-14T00:04:36;101801.44;;;26.41
64947;BMP280;51469;52.150;4.682;2023-06-14T00:07:03;101804.59;;;26.34
64947;BMP280;51469;52.150;4.682;2023-06-14T00:09:28;101804.88;;;26.27
64947;BMP280;51469;52.150;4.682;2023-06-14T00:11:53;101804.25;;;26.14
64947;BMP280;51469;52.150;4.682;2023-06-14T00:14:19;101805.81;;;26.15
64947;BMP280;51469;52.150;4.682;2023-06-14T00:16:44;101800.19;;;26.24
64947;BMP280;51469;52.150;4.682;2023-06-14T00:19:10;101805.03;;;26.14
64947;BMP280;51469;52.150;4.682;2023-06-14T00:21:36;101808.63;;;26.15
64947;BMP280;51469;52.150;4.682;2023-06-14T00:24:03;101800.78;;;26.19
64947;BMP280;51469;52.150;4.682;2023-06-14T00:26:29;101810.47;;;26.18
64947;BMP280;51469;52.150;4.682;2023-06-14T00:28:55;101800.78;;;26.10
64947;BMP280;51469;52.150;4.682;2023-06-14T00:31:22;101812.66;;;26.05
64947;BMP280;51469;52.150;4.682;2023-06-14T00:33:47;101805.44;;;25.86
64947;BMP280;51469;52.150;4.682;2023-06-14T00:36:13;101802.00;;;25.91
64947;BMP280;51469;52.150;4.682;2023-06-14T00:38:38;101804.44;;;25.71
64947;BMP280;51469;52.150;4.682;2023-06-14T00:41:03;101805.38;;;25.68
64947;BMP280;51469;52.150;4.682;2023-06-14T00:43:29;101801.66;;;25.80
64947;BMP280;51469;52.150;4.682;2023-06-14T00:45:54;101802.41;;;25.80
64947;BMP280;51469;52.150;4.682;2023-06-14T00:48:20;101795.69;;;25.69
64947;BMP280;51469;52.150;4.682;2023-06-14T00:50:46;101801.31;;;25.69
64947;BMP280;51469;52.150;4.682;2023-06-14T00:53:14;101803.78;;;25.67
64947;BMP280;51469;52.150;4.682;2023-06-14T00:55:40;101802.09;;;25.69
64947;BMP280;51469;52.150;4.682;2023-06-14T00:58:06;101802.16;;;25.48
64947;BMP280;51469;52.150;4.682;2023-06-14T01:00:32;101803.59;;;25.52
64947;BMP280;51469;52.150;4.682;2023-06-14T01:02:57;101800.91;;;25.49
64947;BMP280;51469;52.150;4.682;2023-06-14T01:05:23;101800.91;;;25.49
64947;BMP280;51469;52.150;4.682;2023-06-14T01:10:42;101810.03;;;25.32
64947;BMP280;51469;52.150;4.682;2023-06-14T01:15:43;101808.59;;;25.27
64947;BMP280;51469;52.150;4.682;2023-06-14T01:18:09;101809.53;;;25.24
64947;BMP280;51469;52.150;4.682;2023-06-14T01:20:42;101809.16;;;25.13
64947;BMP280;51469;52.150;4.682;2023-06-14T01:23:10;101807.59;;;25.12
64947;BMP280;51469;52.150;4.682;2023-06-14T01:25:37;101804.47;;;25.10
64947;BMP280;51469;52.150;4.682;2023-06-14T01:28:05;101807.84;;;25.05
64947;BMP280;51469;52.150;4.682;2023-06-14T01:30:39;101815.06;;;25.06
64947;BMP280;51469;52.150;4.682;2023-06-14T01:33:12;101812.84;;;25.01
64947;BMP280;51469;52.150;4.682;2023-06-14T01:35:38;101807.47;;;24.94
64947;BMP280;51469;52.150;4.682;2023-06-14T01:38:05;101815.50;;;24.83
64947;BMP280;51469;52.150;4.682;2023-06-14T01:40:32;101814.50;;;24.77
64947;BMP280;51469;52.150;4.682;2023-06-14T01:42:59;101811.38;;;24.75
64947;BMP280;51469;52.150;4.682;2023-06-14T01:45:24;101821.28;;;24.67
64947;BMP280;51469;52.150;4.682;2023-06-14T01:47:50;101821.16;;;24.71
64947;BMP280;51469;52.150;4.682;2023-06-14T01:50:15;101816.03;;;24.69
64947;BMP280;51469;52.150;4.682;2023-06-14T01:52:41;101813.88;;;24.73
64947;BMP280;51469;52.150;4.682;2023-06-14T01:55:07;101815.41;;;24.74
64947;BMP280;51469;52.150;4.682;2023-06-14T01:57:33;101822.88;;;24.68
64947;BMP280;51469;52.150;4.682;2023-06-14T01:59:58;101811.91;;;24.61
64947;BMP280;51469;52.150;4.682;2023-06-14T02:02:23;101810.56;;;24.53
64947;BMP280;51469;52.150;4.682;2023-06-14T02:04:49;101816.41;;;24.46
64947;BMP280;51469;52.150;4.682;2023-06-14T02:07:18;101813.28;;;24.44
64947;BMP280;51469;52.150;4.682;2023-06-14T02:09:44;101808.59;;;24.41
64947;BMP280;51469;52.150;4.682;2023-06-14T02:12:09;101806.22;;;24.40
64947;BMP280;51469;52.150;4.682;2023-06-14T02:14:35;101809.50;;;24.38
64947;BMP280;51469;52.150;4.682;2023-06-14T02:17:01;101805.13;;;24.37
64947;BMP280;51469;52.150;4.682;2023-06-14T02:19:27;101807.63;;;24.35
64947;BMP280;51469;52.150;4.682;2023-06-14T02:21:52;101805.38;;;24.30
64947;BMP280;51469;52.150;4.682;2023-06-14T02:24:18;101803.50;;;24.27
64947;BMP280;51469;52.150;4.682;2023-06-14T02:26:43;101809.97;;;24.24
64947;BMP280;51469;52.150;4.682;2023-06-14T02:29:08;101811.22;;;24.23
64947;BMP280;51469;52.150;4.682;2023-06-14T02:31:36;101809.44;;;24.17
64947;BMP280;51469;52.150;4.682;2023-06-14T02:34:01;101817.44;;;23.93
64947;BMP280;51469;52.150;4.682;2023-06-14T02:36:27;101809.34;;;23.95
64947;BMP280;51469;52.150;4.682;2023-06-14T02:38:54;101806.91;;;23.97
64947;BMP280;51469;52.150;4.682;2023-06-14T02:41:22;101821.69;;;23.85
64947;BMP280;51469;52.150;4.682;2023-06-14T02:43:48;101820.78;;;23.88
64947;BMP280;51469;52.150;4.682;2023-06-14T02:46:13;101818.22;;;23.81
64947;BMP280;51469;52.150;4.682;2023-06-14T02:48:38;101814.75;;;23.77
64947;BMP280;51469;52.150;4.682;2023-06-14T02:51:03;101825.06;;;23.80
64947;BMP280;51469;52.150;4.682;2023-06-14T02:53:29;101822.28;;;23.68
64947;BMP280;51469;52.150;4.682;2023-06-14T02:55:54;101829.34;;;23.72
64947;BMP280;51469;52.150;4.682;2023-06-14T02:58:20;101827.78;;;23.71
64947;BMP280;51469;52.150;4.682;2023-06-14T03:00:46;101827.78;;;23.71
64947;BMP280;51469;52.150;4.682;2023-06-14T03:03:11;101834.25;;;23.68
64947;BMP280;51469;52.150;4.682;2023-06-14T03:05:44;101833.38;;;23.71
64947;BMP280;51469;52.150;4.682;2023-06-14T03:08:15;101830.44;;;23.75
64947;BMP280;51469;52.150;4.682;2023-06-14T03:10:45;101828.66;;;23.68
64947;BMP280;51469;52.150;4.682;2023-06-14T03:13:11;101826.38;;;23.63
64947;BMP280;51469;52.150;4.682;2023-06-14T03:15:37;101828.88;;;23.61
64947;BMP280;51469;52.150;4.682;2023-06-14T03:18:03;101837.16;;;23.65
64947;BMP280;51469;52.150;4.682;2023-06-14T03:20:29;101839.84;;;23.68
64947;BMP280;51469;52.150;4.682;2023-06-14T03:23:00;101838.06;;;23.74
64947;BMP280;51469;52.150;4.682;2023-06-14T03:25:25;101846.38;;;23.65
64947;BMP280;51469;52.150;4.682;2023-06-14T03:27:54;101843.19;;;23.63
64947;BMP280;51469;52.150;4.682;2023-06-14T03:30:20;101851.06;;;23.68
64947;BMP280;51469;52.150;4.682;2023-06-14T03:32:45;101853.47;;;23.41
64947;BMP280;51469;52.150;4.682;2023-06-14T03:35:10;101857.78;;;23.58
64947;BMP280;51469;52.150;4.682;2023-06-14T03:37:42;101855.66;;;23.50
64947;BMP280;51469;52.150;4.682;2023-06-14T03:40:08;101855.91;;;23.68
64947;BMP280;51469;52.150;4.682;2023-06-14T03:42:33;101854.19;;;23.70
64947;BMP280;51469;52.150;4.682;2023-06-14T03:44:59;101868.78;;;23.65
64947;BMP280;51469;52.150;4.682;2023-06-14T03:47:24;101871.00;;;23.70
64947;BMP280;51469;52.150;4.682;2023-06-14T03:49:50;101862.50;;;23.61
64947;BMP280;51469;52.150;4.682;2023-06-14T03:52:15;101865.06;;;23.68
64947;BMP280;51469;52.150;4.682;2023-06-14T03:54:42;101868.41;;;23.63
64947;BMP280;51469;52.150;4.682;2023-06-14T03:57:09;101867.84;;;23.43
64947;BMP280;51469;52.150;4.682;2023-06-14T03:59:35;101868.22;;;23.58
64947;BMP280;51469;52.150;4.682;2023-06-14T04:02:01;101874.03;;;23.51
64947;BMP280;51469;52.150;4.682;2023-06-14T04:04:27;101879.25;;;23.36
64947;BMP280;51469;52.150;4.682;2023-06-14T04:06:57;101887.56;;;23.52
64947;BMP280;51469;52.150;4.682;2023-06-14T04:09:24;101873.47;;;23.43
64947;BMP280;51469;52.150;4.682;2023-06-14T04:11:51;101882.56;;;23.60
64947;BMP280;51469;52.150;4.682;2023-06-14T04:14:18;101886.69;;;23.55
64947;BMP280;51469;52.150;4.682;2023-06-14T04:16:44;101888.47;;;23.49
64947;BMP280;51469;52.150;4.682;2023-06-14T04:19:09;101885.19;;;23.38
64947;BMP280;51469;52.150;4.682;2023-06-14T04:21:34;101888.13;;;23.47
64947;BMP280;51469;52.150;4.682;2023-06-14T04:24:00;101887.38;;;23.59
64947;BMP280;51469;52.150;4.682;2023-06-14T04:26:27;101889.25;;;23.50
64947;BMP280;51469;52.150;4.682;2023-06-14T04:28:58;101884.06;;;23.36
64947;BMP280;51469;52.150;4.682;2023-06-14T04:31:28;101887.09;;;23.41
64947;BMP280;51469;52.150;4.682;2023-06-14T04:33:55;101892.47;;;23.48
64947;BMP280;51469;52.150;4.682;2023-06-14T04:36:20;101894.63;;;23.44
64947;BMP280;51469;52.150;4.682;2023-06-14T04:38:46;101886.69;;;23.55
64947;BMP280;51469;52.150;4.682;2023-06-14T04:41:11;101893.63;;;23.63
64947;BMP280;51469;52.150;4.682;2023-06-14T04:43:38;101889.44;;;23.71
64947;BMP280;51469;52.150;4.682;2023-06-14T04:46:06;101897.81;;;23.59
64947;BMP280;51469;52.150;4.682;2023-06-14T04:48:40;101901.50;;;23.68
64947;BMP280;51469;52.150;4.682;2023-06-14T04:51:08;101892.63;;;23.57
64947;BMP280;51469;52.150;4.682;2023-06-14T04:53:34;101889.66;;;23.48
64947;BMP280;51469;52.150;4.682;2023-06-14T04:56:00;101900.63;;;23.71
64947;BMP280;51469;52.150;4.682;2023-06-14T04:58:26;101895.59;;;23.79
64947;BMP280;51469;52.150;4.682;2023-06-14T05:00:52;101891.41;;;23.58
64947;BMP280;51469;52.150;4.682;2023-06-14T05:03:18;101892.63;;;23.70
64947;BMP280;51469;52.150;4.682;2023-06-14T05:05:46;101896.50;;;23.76
64947;BMP280;51469;52.150;4.682;2023-06-14T05:08:11;101897.59;;;23.78
64947;BMP280;51469;52.150;4.682;2023-06-14T05:10:37;101899.50;;;23.81
64947;BMP280;51469;52.150;4.682;2023-06-14T05:13:02;101893.28;;;23.49
64947;BMP280;51469;52.150;4.682;2023-06-14T05:15:28;101903.97;;;23.66
64947;BMP280;51469;52.150;4.682;2023-06-14T05:17:54;101900.72;;;23.55
64947;BMP280;51469;52.150;4.682;2023-06-14T05:20:22;101905.34;;;23.74
64947;BMP280;51469;52.150;4.682;2023-06-14T05:22:50;101906.78;;;23.91
64947;BMP280;51469;52.150;4.682;2023-06-14T05:25:17;101903.88;;;23.82
64947;BMP280;51469;52.150;4.682;2023-06-14T05:27:42;101908.97;;;23.87
64947;BMP280;51469;52.150;4.682;2023-06-14T05:30:08;101909.53;;;24.07
64947;BMP280;51469;52.150;4.682;2023-06-14T05:32:34;101904.47;;;24.02
64947;BMP280;51469;52.150;4.682;2023-06-14T05:34:59;101906.72;;;24.07
64947;BMP280;51469;52.150;4.682;2023-06-14T05:37:25;101906.47;;;24.14
64947;BMP280;51469;52.150;4.682;2023-06-14T05:39:50;101913.00;;;24.11
64947;BMP280;51469;52.150;4.682;2023-06-14T05:42:16;101906.72;;;24.07
64947;BMP280;51469;52.150;4.682;2023-06-14T05:44:41;101902.88;;;24.26
64947;BMP280;51469;52.150;4.682;2023-06-14T05:47:06;101905.13;;;24.31
64947;BMP280;51469;52.150;4.682;2023-06-14T05:49:32;101917.25;;;24.28
64947;BMP280;51469;52.150;4.682;2023-06-14T05:51:57;101905.56;;;24.42
64947;BMP280;51469;52.150;4.682;2023-06-14T05:54:22;101917.63;;;24.64
64947;BMP280;51469;52.150;4.682;2023-06-14T05:56:48;101918.88;;;24.97
64947;BMP280;51469;52.150;4.682;2023-06-14T05:59:13;101917.91;;;25.34
64947;BMP280;51469;52.150;4.682;2023-06-14T06:01:38;101918.38;;;25.33
64947;BMP280;51469;52.150;4.682;2023-06-14T06:04:05;101912.19;;;25.68
64947;BMP280;51469;52.150;4.682;2023-06-14T06:06:31;101921.19;;;26.24
64947;BMP280;51469;52.150;4.682;2023-06-14T06:08:57;101915.78;;;26.56
64947;BMP280;51469;52.150;4.682;2023-06-14T06:11:23;101920.13;;;26.66
64947;BMP280;51469;52.150;4.682;2023-06-14T06:13:48;101919.66;;;26.41
64947;BMP280;51469;52.150;4.682;2023-06-14T06:16:14;101918.47;;;26.69
64947;BMP280;51469;52.150;4.682;2023-06-14T06:18:40;101916.69;;;27.16
64947;BMP280;51469;52.150;4.682;2023-06-14T06:21:05;101916.78;;;27.49
64947;BMP280;51469;52.150;4.682;2023-06-14T06:23:31;101920.34;;;27.67
64947;BMP280;51469;52.150;4.682;2023-06-14T06:25:56;101928.91;;;27.72
64947;BMP280;51469;52.150;4.682;2023-06-14T06:28:22;101925.16;;;27.75
64947;BMP280;51469;52.150;4.682;2023-06-14T06:30:47;101925.25;;;27.49
64947;BMP280;51469;52.150;4.682;2023-06-14T06:33:13;101919.81;;;27.27
64947;BMP280;51469;52.150;4.682;2023-06-14T06:35:39;101929.72;;;27.05
64947;BMP280;51469;52.150;4.682;2023-06-14T06:38:04;101937.19;;;27.17
64947;BMP280;51469;52.150;4.682;2023-06-14T06:40:30;101930.78;;;27.16
64947;BMP280;51469;52.150;4.682;2023-06-14T06:42:55;101931.28;;;27.06
64947;BMP280;51469;52.150;4.682;2023-06-14T06:45:21;101938.81;;;27.00
64947;BMP280;51469;52.150;4.682;2023-06-14T06:47:46;101937.22;;;26.99
64947;BMP280;51469;52.150;4.682;2023-06-14T06:50:11;101932.19;;;27.21
64947;BMP280;51469;52.150;4.682;2023-06-14T06:52:37;101944.84;;;27.25
64947;BMP280;51469;52.150;4.682;2023-06-14T06:55:02;101946.59;;;27.23
64947;BMP280;51469;52.150;4.682;2023-06-14T06:57:28;101954.06;;;27.35
64947;BMP280;51469;52.150;4.682;2023-06-14T06:59:54;101952.03;;;27.44
64947;BMP280;51469;52.150;4.682;2023-06-14T07:02:19;101960.03;;;27.46
64947;BMP280;51469;52.150;4.682;2023-06-14T07:04:45;101963.13;;;27.65
64947;BMP280;51469;52.150;4.682;2023-06-14T07:07:10;101959.13;;;27.81
64947;BMP280;51469;52.150;4.682;2023-06-14T07:09:36;101963.69;;;27.78
64947;BMP280;51469;52.150;4.682;2023-06-14T07:12:02;101969.44;;;27.84
64947;BMP280;51469;52.150;4.682;2023-06-14T07:14:27;101977.50;;;27.76
64947;BMP280;51469;52.150;4.682;2023-06-14T07:16:52;101977.16;;;27.83
64947;BMP280;51469;52.150;4.682;2023-06-14T07:19:19;101973.13;;;27.75
64947;BMP280;51469;52.150;4.682;2023-06-14T07:21:44;101973.78;;;27.70
64947;BMP280;51469;52.150;4.682;2023-06-14T07:24:10;101971.53;;;28.07
64947;BMP280;51469;52.150;4.682;2023-06-14T07:26:35;101975.72;;;28.20
64947;BMP280;51469;52.150;4.682;2023-06-14T07:29:01;101972.75;;;27.82
64947;BMP280;51469;52.150;4.682;2023-06-14T07:31:26;101975.13;;;28.16
64947;BMP280;51469;52.150;4.682;2023-06-14T07:33:52;101975.63;;;28.38
64947;BMP280;51469;52.150;4.682;2023-06-14T07:36:17;101977.44;;;28.50
64947;BMP280;51469;52.150;4.682;2023-06-14T07:38:43;101982.97;;;28.21
64947;BMP280;51469;52.150;4.682;2023-06-14T07:41:09;101974.25;;;28.01
64947;BMP280;51469;52.150;4.682;2023-06-14T07:43:34;101982.22;;;28.35
64947;BMP280;51469;52.150;4.682;2023-06-14T07:46:00;101985.34;;;28.37
64947;BMP280;51469;52.150;4.682;2023-06-14T07:48:25;101992.91;;;28.31
64947;BMP280;51469;52.150;4.682;2023-06-14T07:50:51;101993.03;;;28.60
64947;BMP280;51469;52.150;4.682;2023-06-14T07:53:16;101985.31;;;28.84
64947;BMP280;51469;52.150;4.682;2023-06-14T07:55:42;101990.84;;;29.02
64947;BMP280;51469;52.150;4.682;2023-06-14T07:58:08;101992.03;;;29.10
64947;BMP280;51469;52.150;4.682;2023-06-14T08:00:33;101991.50;;;28.97
64947;BMP280;51469;52.150;4.682;2023-06-14T08:02:59;101992.44;;;29.18
64947;BMP280;51469;52.150;4.682;2023-06-14T08:05:25;101996.91;;;29.24
64947;BMP280;51469;52.150;4.682;2023-06-14T08:07:54;102005.47;;;29.15
64947;BMP280;51469;52.150;4.682;2023-06-14T08:10:20;102002.78;;;29.21
64947;BMP280;51469;52.150;4.682;2023-06-14T08:12:46;102002.19;;;29.31
64947;BMP280;51469;52.150;4.682;2023-06-14T08:15:11;101995.06;;;29.21
64947;BMP280;51469;52.150;4.682;2023-06-14T08:17:37;101991.25;;;29.24
64947;BMP280;51469;52.150;4.682;2023-06-14T08:20:03;102003.19;;;29.28
64947;BMP280;51469;52.150;4.682;2023-06-14T08:22:30;101993.03;;;29.50
64947;BMP280;51469;52.150;4.682;2023-06-14T08:24:59;101983.03;;;29.84
64947;BMP280;51469;52.150;4.682;2023-06-14T08:27:24;102005.78;;;29.75
64947;BMP280;51469;52.150;4.682;2023-06-14T08:29:50;101988.88;;;29.95
64947;BMP280;51469;52.150;4.682;2023-06-14T08:32:15;101994.16;;;30.02
64947;BMP280;51469;52.150;4.682;2023-06-14T08:34:41;101984.94;;;30.07
64947;BMP280;51469;52.150;4.682;2023-06-14T08:37:06;101993.00;;;29.79
64947;BMP280;51469;52.150;4.682;2023-06-14T08:39:32;101989.91;;;29.63
64947;BMP280;51469;52.150;4.682;2023-06-14T08:41:58;102000.94;;;30.10
64947;BMP280;51469;52.150;4.682;2023-06-14T08:44:24;101996.44;;;30.18
64947;BMP280;51469;52.150;4.682;2023-06-14T08:46:50;101991.69;;;30.29
64947;BMP280;51469;52.150;4.682;2023-06-14T08:49:17;101996.84;;;30.31
64947;BMP280;51469;52.150;4.682;2023-06-14T08:51:43;101987.97;;;30.38
64947;BMP280;51469;52.150;4.682;2023-06-14T08:54:10;101984.84;;;30.56
64947;BMP280;51469;52.150;4.682;2023-06-14T08:56:37;101989.22;;;30.37
64947;BMP280;51469;52.150;4.682;2023-06-14T08:59:03;101988.66;;;30.73
64947;BMP280;51469;52.150;4.682;2023-06-14T09:01:32;101989.78;;;30.61
64947;BMP280;51469;52.150;4.682;2023-06-14T09:03:59;101990.38;;;31.15
64947;BMP280;51469;52.150;4.682;2023-06-14T09:06:25;101985.06;;;30.97
64947;BMP280;51469;52.150;4.682;2023-06-14T09:08:50;101996.19;;;31.26
64947;BMP280;51469;52.150;4.682;2023-06-14T09:11:18;101995.22;;;31.09
64947;BMP280;51469;52.150;4.682;2023-06-14T09:13:46;101995.28;;;31.40
64947;BMP280;51469;52.150;4.682;2023-06-14T09:16:12;101988.75;;;31.60
64947;BMP280;51469;52.150;4.682;2023-06-14T09:18:39;101988.63;;;31.80
64947;BMP280;51469;52.150;4.682;2023-06-14T09:21:07;101996.91;;;31.83
64947;BMP280;51469;52.150;4.682;2023-06-14T09:23:51;101997.84;;;31.69
64947;BMP280;51469;52.150;4.682;2023-06-14T09:26:19;101994.63;;;31.87
64947;BMP280;51469;52.150;4.682;2023-06-14T09:28:49;102009.91;;;31.95
64947;BMP280;51469;52.150;4.682;2023-06-14T09:31:19;101997.13;;;31.74
64947;BMP280;51469;52.150;4.682;2023-06-14T09:33:46;101992.94;;;31.70
64947;BMP280;51469;52.150;4.682;2023-06-14T09:36:25;101995.75;;;32.06
64947;BMP280;51469;52.150;4.682;2023-06-14T09:41:40;102001.84;;;31.88
64947;BMP280;51469;52.150;4.682;2023-06-14T09:44:07;102006.03;;;31.98
64947;BMP280;51469;52.150;4.682;2023-06-14T09:46:34;102006.66;;;31.77
64947;BMP280;51469;52.150;4.682;2023-06-14T09:49:01;102000.16;;;31.40
64947;BMP280;51469;52.150;4.682;2023-06-14T09:51:27;102003.13;;;31.56
64947;BMP280;51469;52.150;4.682;2023-06-14T09:53:55;101997.47;;;31.56
64947;BMP280;51469;52.150;4.682;2023-06-14T09:56:27;102001.22;;;31.42
64947;BMP280;51469;52.150;4.682;2023-06-14T09:58:55;101993.53;;;31.79
64947;BMP280;51469;52.150;4.682;2023-06-14T10:01:21;101987.78;;;32.16
64947;BMP280;51469;52.150;4.682;2023-06-14T10:03:50;101994.84;;;32.20
64947;BMP280;51469;52.150;4.682;2023-06-14T10:06:20;101998.06;;;32.55
64947;BMP280;51469;52.150;4.682;2023-06-14T10:08:49;102002.28;;;32.76
64947;BMP280;51469;52.150;4.682;2023-06-14T10:11:16;102001.47;;;32.75
64947;BMP280;51469;52.150;4.682;2023-06-14T10:13:42;101992.06;;;32.42
64947;BMP280;51469;52.150;4.682;2023-06-14T10:16:18;102002.38;;;31.92
64947;BMP280;51469;52.150;4.682;2023-06-14T10:19:02;102003.16;;;32.40
64947;BMP280;51469;52.150;4.682;2023-06-14T10:21:41;101995.66;;;32.37
64947;BMP280;51469;52.150;4.682;2023-06-14T10:24:10;102001.38;;;31.95
64947;BMP280;51469;52.150;4.682;2023-06-14T10:26:53;101991.19;;;31.78
64947;BMP280;51469;52.150;4.682;2023-06-14T10:29:18;101991.56;;;31.96
64947;BMP280;51469;52.150;4.682;2023-06-14T10:31:46;101998.00;;;32.33
64947;BMP280;51469;52.150;4.682;2023-06-14T10:34:12;101995.78;;;32.70
64947;BMP280;51469;52.150;4.682;2023-06-14T10:36:45;101997.16;;;33.02
64947;BMP280;51469;52.150;4.682;2023-06-14T10:39:16;101997.16;;;33.13
64947;BMP280;51469;52.150;4.682;2023-06-14T10:41:50;101993.38;;;32.52
64947;BMP280;51469;52.150;4.682;2023-06-14T10:46:49;102006.53;;;32.44
64947;BMP280;51469;52.150;4.682;2023-06-14T10:49:44;102005.75;;;32.38
64947;BMP280;51469;52.150;4.682;2023-06-14T10:52:15;102017.41;;;31.98
64947;BMP280;51469;52.150;4.682;2023-06-14T10:57:21;102006.94;;;32.90
64947;BMP280;51469;52.150;4.682;2023-06-14T10:59:46;102010.31;;;33.05
64947;BMP280;51469;52.150;4.682;2023-06-14T11:04:51;102009.03;;;33.60
64947;BMP280;51469;52.150;4.682;2023-06-14T11:10:42;102001.84;;;33.27
64947;BMP280;51469;52.150;4.682;2023-06-14T11:13:08;101996.41;;;33.40
64947;BMP280;51469;52.150;4.682;2023-06-14T11:15:38;101995.09;;;33.41
64947;BMP280;51469;52.150;4.682;2023-06-14T11:18:08;101993.78;;;33.63
64947;BMP280;51469;52.150;4.682;2023-06-14T11:20:35;101995.59;;;33.55
64947;BMP280;51469;52.150;4.682;2023-06-14T11:23:02;101990.41;;;33.70
64947;BMP280;51469;52.150;4.682;2023-06-14T11:25:28;101987.16;;;34.12
64947;BMP280;51469;52.150;4.682;2023-06-14T11:27:54;101985.63;;;34.11
64947;BMP280;51469;52.150;4.682;2023-06-14T11:30:20;101994.75;;;33.99
64947;BMP280;51469;52.150;4.682;2023-06-14T11:32:50;101997.94;;;33.52
64947;BMP280;51469;52.150;4.682;2023-06-14T11:35:17;101992.00;;;33.50
64947;BMP280;51469;52.150;4.682;2023-06-14T11:37:43;101987.09;;;33.39
64947;BMP280;51469;52.150;4.682;2023-06-14T11:40:13;101986.31;;;33.50
64947;BMP280;51469;52.150;4.682;2023-06-14T11:42:39;101973.63;;;33.40
64947;BMP280;51469;52.150;4.682;2023-06-14T11:45:12;101978.50;;;33.66
64947;BMP280;51469;52.150;4.682;2023-06-14T11:47:40;101969.91;;;33.83
64947;BMP280;51469;52.150;4.682;2023-06-14T11:50:07;101959.31;;;33.83
64947;BMP280;51469;52.150;4.682;2023-06-14T11:52:37;101979.78;;;33.60
64947;BMP280;51469;52.150;4.682;2023-06-14T11:55:03;101971.22;;;33.82
64947;BMP280;51469;52.150;4.682;2023-06-14T11:57:35;101990.19;;;33.25
64947;BMP280;51469;52.150;4.682;2023-06-14T12:00:04;101989.13;;;33.06
64947;BMP280;51469;52.150;4.682;2023-06-14T12:02:33;101983.19;;;32.98
64947;BMP280;51469;52.150;4.682;2023-06-14T12:05:04;101978.25;;;33.53
64947;BMP280;51469;52.150;4.682;2023-06-14T12:07:32;101985.50;;;33.11
64947;BMP280;51469;52.150;4.682;2023-06-14T12:12:23;101979.56;;;33.42
64947;BMP280;51469;52.150;4.682;2023-06-14T12:14:51;101972.50;;;33.92
64947;BMP280;51469;52.150;4.682;2023-06-14T12:17:17;101975.16;;;34.30
64947;BMP280;51469;52.150;4.682;2023-06-14T12:19:44;101980.56;;;34.34
64947;BMP280;51469;52.150;4.682;2023-06-14T12:22:10;101975.53;;;34.10
64947;BMP280;51469;52.150;4.682;2023-06-14T12:24:36;101980.72;;;34.01
64947;BMP280;51469;52.150;4.682;2023-06-14T12:27:03;101978.34;;;34.21
64947;BMP280;51469;52.150;4.682;2023-06-14T12:29:29;101986.03;;;34.37
64947;BMP280;51469;52.150;4.682;2023-06-14T12:31:55;101991.72;;;34.37
64947;BMP280;51469;52.150;4.682;2023-06-14T12:34:23;101981.91;;;33.59
64947;BMP280;51469;52.150;4.682;2023-06-14T12:36:50;101993.00;;;33.47
64947;BMP280;51469;52.150;4.682;2023-06-14T12:39:15;101997.41;;;33.26
64947;BMP280;51469;52.150;4.682;2023-06-14T12:41:41;101996.38;;;33.18
64947;BMP280;51469;52.150;4.682;2023-06-14T12:44:07;101996.31;;;32.85
64947;BMP280;51469;52.150;4.682;2023-06-14T12:46:33;101992.50;;;33.48
64947;BMP280;51469;52.150;4.682;2023-06-14T12:48:58;101985.72;;;33.78
64947;BMP280;51469;52.150;4.682;2023-06-14T12:51:24;101988.56;;;33.89
64947;BMP280;51469;52.150;4.682;2023-06-14T12:53:50;101974.31;;;33.89
64947;BMP280;51469;52.150;4.682;2023-06-14T12:56:16;101986.53;;;33.62
64947;BMP280;51469;52.150;4.682;2023-06-14T12:58:42;101992.50;;;32.99
64947;BMP280;51469;52.150;4.682;2023-06-14T13:01:07;101986.31;;;33.33
64947;BMP280;51469;52.150;4.682;2023-06-14T13:03:33;101987.81;;;32.96
64947;BMP280;51469;52.150;4.682;2023-06-14T13:06:01;101982.59;;;32.72
64947;BMP280;51469;52.150;4.682;2023-06-14T13:08:28;101976.72;;;33.42
64947;BMP280;51469;52.150;4.682;2023-06-14T13:10:53;101981.09;;;33.43
64947;BMP280;51469;52.150;4.682;2023-06-14T13:13:19;101981.66;;;33.14
64947;BMP280;51469;52.150;4.682;2023-06-14T13:15:44;101994.81;;;33.00
64947;BMP280;51469;52.150;4.682;2023-06-14T13:18:11;101999.50;;;33.25
64947;BMP280;51469;52.150;4.682;2023-06-14T13:20:38;102001.06;;;33.26
64947;BMP280;51469;52.150;4.682;2023-06-14T13:23:04;101994.28;;;32.85
64947;BMP280;51469;52.150;4.682;2023-06-14T13:25:31;102006.44;;;33.08
64947;BMP280;51469;52.150;4.682;2023-06-14T13:27:57;101985.94;;;32.65
64947;BMP280;51469;52.150;4.682;2023-06-14T13:30:22;101998.19;;;33.10
64947;BMP280;51469;52.150;4.682;2023-06-14T13:32:47;101995.06;;;33.19
64947;BMP280;51469;52.150;4.682;2023-06-14T13:35:13;101997.41;;;32.98
64947;BMP280;51469;52.150;4.682;2023-06-14T13:37:38;101985.28;;;33.20
64947;BMP280;51469;52.150;4.682;2023-06-14T13:40:04;101992.75;;;32.95
64947;BMP280;51469;52.150;4.682;2023-06-14T13:42:30;102003.31;;;32.95
64947;BMP280;51469;52.150;4.682;2023-06-14T13:44:57;101981.06;;;32.88
64947;BMP280;51469;52.150;4.682;2023-06-14T13:47:23;101984.22;;;33.23
64947;BMP280;51469;52.150;4.682;2023-06-14T13:49:48;101983.47;;;33.33
64947;BMP280;51469;52.150;4.682;2023-06-14T13:52:13;101985.22;;;32.98
64947;BMP280;51469;52.150;4.682;2023-06-14T13:54:39;101981.63;;;33.03
64947;BMP280;51469;52.150;4.682;2023-06-14T13:57:04;101983.44;;;33.06
64947;BMP280;51469;52.150;4.682;2023-06-14T13:59:30;101982.38;;;32.98
64947;BMP280;51469;52.150;4.682;2023-06-14T14:01:56;101976.72;;;33.03
64947;BMP280;51469;52.150;4.682;2023-06-14T14:04:21;101979.84;;;33.16
64947;BMP280;51469;52.150;4.682;2023-06-14T14:06:47;101981.34;;;33.01
64947;BMP280;51469;52.150;4.682;2023-06-14T14:09:12;101986.31;;;33.17
64947;BMP280;51469;52.150;4.682;2023-06-14T14:11:38;101989.41;;;32.97
64947;BMP280;51469;52.150;4.682;2023-06-14T14:14:04;101977.78;;;33.17
64947;BMP280;51469;52.150;4.682;2023-06-14T14:16:30;101973.19;;;32.39